createdAt,value
2017-11-23T00:00:11.860Z,2.41
2017-11-23T00:02:40.957Z,2.42
2017-11-23T00:05:10.124Z,2.40
2017-11-23T00:07:38.396Z,2.34
2017-11-23T00:10:06.681Z,2.21
2017-11-23T00:12:36.542Z,2.29
2017-11-23T00:15:04.867Z,2.21
2017-11-23T00:17:33.179Z,2.41
2017-11-23T00:20:02.276Z,2.29
2017-11-23T00:22:31.367Z,2.40
2017-11-23T00:24:59.631Z,2.33
2017-11-23T00:27:27.921Z,2.21
2017-11-23T00:29:56.241Z,2.32
2017-11-23T00:32:24.536Z,2.29
2017-11-23T00:34:52.821Z,2.34
2017-11-23T00:37:21.115Z,2.34
2017-11-23T00:39:49.389Z,2.32
2017-11-23T00:42:17.680Z,2.34
2017-11-23T00:44:46.026Z,2.41
2017-11-23T00:47:14.345Z,2.37
2017-11-23T00:49:42.621Z,2.24
2017-11-23T00:52:11.931Z,2.20
2017-11-23T00:54:40.240Z,2.31
2017-11-23T00:57:08.536Z,2.42
2017-11-23T00:59:39.003Z,2.39
2017-11-23T01:02:07.333Z,2.38
2017-11-23T01:04:35.622Z,2.29
2017-11-23T01:07:03.912Z,2.29
2017-11-23T01:09:32.217Z,2.41
2017-11-23T01:12:00.775Z,2.35
2017-11-23T01:14:29.093Z,2.32
2017-11-23T01:16:58.195Z,2.14
2017-11-23T01:19:28.268Z,2.31
2017-11-23T01:22:01.914Z,2.27
2017-11-23T01:24:31.060Z,2.26
2017-11-23T01:26:59.853Z,2.31
2017-11-23T01:29:28.145Z,2.23
2017-11-23T01:31:56.453Z,2.20
2017-11-23T01:34:24.831Z,2.16
2017-11-23T01:36:53.998Z,2.20
2017-11-23T01:39:22.317Z,2.26
2017-11-23T01:41:51.416Z,2.29
2017-11-23T01:44:20.604Z,2.29
2017-11-23T01:46:48.923Z,2.26
2017-11-23T01:49:17.369Z,2.24
2017-11-23T01:51:46.432Z,2.31
2017-11-23T01:54:14.847Z,2.18
2017-11-23T01:56:43.937Z,2.21
2017-11-23T01:59:12.214Z,2.15
2017-11-23T02:01:40.549Z,2.26
2017-11-23T02:04:08.917Z,2.38
2017-11-23T02:06:37.243Z,2.27
2017-11-23T02:09:05.514Z,2.19
2017-11-23T02:11:33.807Z,2.18
2017-11-23T02:14:02.146Z,2.19
2017-11-23T02:16:30.463Z,2.05
2017-11-23T02:18:58.735Z,2.14
2017-11-23T02:21:27.169Z,2.15
2017-11-23T02:23:55.450Z,2.11
2017-11-23T02:26:23.777Z,2.06
2017-11-23T02:28:52.162Z,2.05
2017-11-23T02:31:21.669Z,2.22
2017-11-23T02:33:50.808Z,2.17
2017-11-23T02:36:19.156Z,2.13
2017-11-23T02:38:48.247Z,2.18
2017-11-23T02:41:17.531Z,2.28
2017-11-23T02:43:46.789Z,2.17
2017-11-23T02:46:15.291Z,2.06
2017-11-23T02:48:43.602Z,2.02
2017-11-23T02:51:12.038Z,1.98
2017-11-23T02:53:40.565Z,2.05
2017-11-23T02:56:09.151Z,2.24
2017-11-23T02:58:38.386Z,2.18
2017-11-23T03:01:10.979Z,2.22
2017-11-23T03:03:40.324Z,2.13
2017-11-23T03:06:08.782Z,2.21
2017-11-23T03:08:37.291Z,2.27
2017-11-23T03:11:05.737Z,2.10
2017-11-23T03:13:34.039Z,2.10
2017-11-23T03:16:02.664Z,2.26
2017-11-23T03:18:32.344Z,2.10
2017-11-23T03:21:00.617Z,2.10
2017-11-23T03:23:29.009Z,2.27
2017-11-23T03:25:57.390Z,2.22
2017-11-23T03:28:25.703Z,2.27
2017-11-23T03:30:54.548Z,2.09
2017-11-23T03:33:22.942Z,2.09
2017-11-23T03:35:52.198Z,2.11
2017-11-23T03:38:20.617Z,2.03
2017-11-23T03:40:49.035Z,2.00
2017-11-23T03:43:19.376Z,2.01
2017-11-23T03:45:47.743Z,2.11
2017-11-23T03:48:16.089Z,2.11
2017-11-23T03:50:44.427Z,2.18
2017-11-23T03:53:12.738Z,2.06
2017-11-23T03:55:41.254Z,2.09
2017-11-23T03:58:11.877Z,2.00
2017-11-23T04:00:41.096Z,1.95
2017-11-23T04:03:10.262Z,1.93
2017-11-23T04:05:38.749Z,2.09
2017-11-23T04:08:07.084Z,2.21
2017-11-23T04:10:35.438Z,2.18
2017-11-23T04:13:03.876Z,2.14
2017-11-23T04:15:32.174Z,2.26
2017-11-23T04:18:03.106Z,2.33
2017-11-23T04:20:31.761Z,2.29
2017-11-23T04:23:01.004Z,2.00
2017-11-23T04:25:30.238Z,2.18
2017-11-23T04:27:58.827Z,2.26
2017-11-23T04:30:28.794Z,2.33
2017-11-23T04:32:57.392Z,2.30
2017-11-23T04:35:26.524Z,2.37
2017-11-23T04:37:54.863Z,2.31
2017-11-23T04:40:24.238Z,2.23
2017-11-23T04:42:52.901Z,2.19
2017-11-23T04:45:21.216Z,2.19
2017-11-23T04:47:50.496Z,2.26
2017-11-23T04:50:18.957Z,2.33
2017-11-23T04:52:47.279Z,2.44
2017-11-23T04:55:15.579Z,2.46
2017-11-23T04:57:44.914Z,2.45
2017-11-23T05:00:13.208Z,2.42
2017-11-23T05:02:41.544Z,2.43
2017-11-23T05:05:10.593Z,2.38
2017-11-23T05:07:38.899Z,2.41
2017-11-23T05:10:07.221Z,2.39
2017-11-23T05:12:35.516Z,2.43
2017-11-23T05:15:03.936Z,2.39
2017-11-23T05:17:32.317Z,2.44
2017-11-23T05:20:01.486Z,2.40
2017-11-23T05:22:29.798Z,2.45
2017-11-23T05:24:58.965Z,2.34
2017-11-23T05:27:28.421Z,2.36
2017-11-23T05:29:57.174Z,2.35
2017-11-23T05:32:25.653Z,2.35
2017-11-23T05:34:54.475Z,2.34
2017-11-23T05:37:24.169Z,2.39
2017-11-23T05:39:52.424Z,2.36
2017-11-23T05:42:20.716Z,2.42
2017-11-23T05:44:48.990Z,2.42
2017-11-23T05:47:17.304Z,2.24
2017-11-23T05:49:46.360Z,2.31
2017-11-23T05:52:14.656Z,2.15
2017-11-23T05:54:42.938Z,2.22
2017-11-23T05:57:11.439Z,2.26
2017-11-23T05:59:39.830Z,2.31
2017-11-23T06:02:08.172Z,2.28
2017-11-23T06:04:36.432Z,2.28
2017-11-23T06:07:04.854Z,2.31
2017-11-23T06:09:33.155Z,2.34
2017-11-23T06:12:01.840Z,2.27
2017-11-23T06:14:30.166Z,2.27
2017-11-23T06:16:58.484Z,2.40
2017-11-23T06:19:27.033Z,2.37
2017-11-23T06:21:55.303Z,2.41
2017-11-23T06:24:23.878Z,2.42
2017-11-23T06:26:52.176Z,2.44
2017-11-23T06:29:20.435Z,2.35
2017-11-23T06:31:48.739Z,2.43
2017-11-23T06:34:17.144Z,2.38
2017-11-23T06:36:45.716Z,2.37
2017-11-23T06:39:14.770Z,2.41
2017-11-23T06:41:43.048Z,2.44
2017-11-23T06:44:11.349Z,2.49
2017-11-23T06:46:39.609Z,2.52
2017-11-23T06:49:07.913Z,2.58
2017-11-23T06:51:36.267Z,2.66
2017-11-23T06:54:04.562Z,2.68
2017-11-23T06:56:32.890Z,2.66
2017-11-23T06:59:01.184Z,2.63
2017-11-23T07:01:29.476Z,2.62
2017-11-23T07:03:57.752Z,2.60
2017-11-23T07:06:26.009Z,2.63
2017-11-23T07:08:55.026Z,2.67
2017-11-23T07:11:23.284Z,2.70
2017-11-23T07:13:51.565Z,2.82
2017-11-23T07:16:19.833Z,2.87
2017-11-23T07:18:48.127Z,2.83
2017-11-23T07:21:16.400Z,2.87
2017-11-23T07:23:44.691Z,2.96
2017-11-23T07:26:12.952Z,2.94
2017-11-23T07:28:41.220Z,3.00
2017-11-23T07:31:09.497Z,3.05
2017-11-23T07:33:37.777Z,3.06
2017-11-23T07:36:06.078Z,3.11
2017-11-23T07:38:34.358Z,3.21
2017-11-23T07:41:02.651Z,3.19
2017-11-23T07:43:30.941Z,3.32
2017-11-23T07:45:59.230Z,3.37
2017-11-23T07:48:28.264Z,3.40
2017-11-23T07:50:56.603Z,3.47
2017-11-23T07:53:24.931Z,3.53
2017-11-23T07:55:53.200Z,3.49
2017-11-23T07:58:21.494Z,3.59
2017-11-23T08:00:49.760Z,3.68
2017-11-23T08:03:18.077Z,3.78
2017-11-23T08:05:46.366Z,3.80
2017-11-23T08:08:14.644Z,3.87
2017-11-23T08:10:42.939Z,3.91
2017-11-23T08:13:11.989Z,4.03
2017-11-23T08:15:41.067Z,4.09
2017-11-23T08:18:09.337Z,4.21
2017-11-23T08:20:37.635Z,4.31
2017-11-23T08:23:05.922Z,4.39
2017-11-23T08:25:34.221Z,4.47
2017-11-23T08:28:02.516Z,4.59
2017-11-23T08:30:31.549Z,4.66
2017-11-23T08:32:59.819Z,4.77
2017-11-23T08:35:28.112Z,4.87
2017-11-23T08:37:57.242Z,4.93
2017-11-23T08:40:26.002Z,4.98
2017-11-23T08:42:54.293Z,5.15
2017-11-23T08:45:23.064Z,5.33
2017-11-23T08:47:51.341Z,5.49
2017-11-23T08:50:19.630Z,5.65
2017-11-23T08:52:47.923Z,6.04
2017-11-23T08:55:16.201Z,6.36
2017-11-23T08:57:44.875Z,6.55
2017-11-23T09:00:13.462Z,6.88
2017-11-23T09:02:42.519Z,7.08
2017-11-23T09:05:10.833Z,7.42
2017-11-23T09:07:39.138Z,7.78
2017-11-23T09:10:07.401Z,7.96
2017-11-23T09:12:40.566Z,8.13
2017-11-23T09:15:08.851Z,8.30
2017-11-23T09:17:37.106Z,8.41
2017-11-23T09:20:05.414Z,8.48
2017-11-23T09:22:33.668Z,8.65
2017-11-23T09:25:02.696Z,8.70
2017-11-23T09:27:30.983Z,8.84
2017-11-23T09:29:59.249Z,9.11
2017-11-23T09:32:27.516Z,9.23
2017-11-23T09:34:55.795Z,9.32
2017-11-23T09:37:24.072Z,9.41
2017-11-23T09:39:52.352Z,9.55
2017-11-23T09:42:20.616Z,9.74
2017-11-23T09:44:48.865Z,9.86
2017-11-23T09:47:17.160Z,9.99
2017-11-23T09:49:45.445Z,10.10
2017-11-23T09:52:13.729Z,10.31
2017-11-23T09:54:41.984Z,10.44
2017-11-23T09:57:10.252Z,10.44
2017-11-23T09:59:38.578Z,10.53
2017-11-23T10:02:06.854Z,10.80
2017-11-23T10:04:35.166Z,10.92
2017-11-23T10:07:04.189Z,10.93
2017-11-23T10:09:32.454Z,11.08
2017-11-23T10:12:00.752Z,11.23
2017-11-23T10:14:34.565Z,11.27
2017-11-23T10:17:02.854Z,11.25
2017-11-23T10:19:31.131Z,11.34
2017-11-23T10:21:59.395Z,11.35
2017-11-23T10:24:28.587Z,11.39
2017-11-23T10:26:56.859Z,11.51
2017-11-23T10:29:25.147Z,11.59
2017-11-23T10:31:53.418Z,11.74
2017-11-23T10:34:21.681Z,11.78
2017-11-23T10:36:49.980Z,11.97
2017-11-23T10:39:18.257Z,11.96
2017-11-23T10:41:46.539Z,12.00
2017-11-23T10:44:14.833Z,11.98
2017-11-23T10:46:43.116Z,11.97
2017-11-23T10:49:11.387Z,12.01
2017-11-23T10:51:39.679Z,12.06
2017-11-23T10:54:07.957Z,12.04
2017-11-23T10:56:36.263Z,12.07
2017-11-23T10:59:04.560Z,12.13
2017-11-23T11:01:32.835Z,12.18
2017-11-23T11:04:01.875Z,12.21
2017-11-23T11:06:30.173Z,12.33
2017-11-23T11:08:58.502Z,12.35
2017-11-23T11:11:26.869Z,12.35
2017-11-23T11:13:55.132Z,12.30
2017-11-23T11:16:23.402Z,12.36
2017-11-23T11:18:51.961Z,12.36
2017-11-23T11:21:20.232Z,12.41
2017-11-23T11:23:48.520Z,12.45
2017-11-23T11:26:17.282Z,12.56
2017-11-23T11:28:45.583Z,12.63
2017-11-23T11:31:13.845Z,12.63
2017-11-23T11:33:42.123Z,12.69
2017-11-23T11:36:10.394Z,12.86
2017-11-23T11:38:38.681Z,12.96
2017-11-23T11:41:07.016Z,13.06
2017-11-23T11:43:35.285Z,13.08
2017-11-23T11:46:04.349Z,13.17
2017-11-23T11:48:32.630Z,13.28
2017-11-23T11:51:00.930Z,13.25
2017-11-23T11:53:29.193Z,13.26
2017-11-23T11:55:57.456Z,13.30
2017-11-23T11:58:30.993Z,13.37
2017-11-23T12:01:03.514Z,13.31
2017-11-23T12:03:32.503Z,13.33
2017-11-23T12:06:00.774Z,13.38
2017-11-23T12:08:29.051Z,13.39
2017-11-23T12:10:57.329Z,13.39
2017-11-23T12:13:25.611Z,13.47
2017-11-23T12:16:12.856Z,13.51
2017-11-23T12:22:20.080Z,13.61
2017-11-23T12:25:02.765Z,13.58
2017-11-23T12:27:48.572Z,13.61
2017-11-23T12:30:16.865Z,13.62
2017-11-23T12:32:46.156Z,13.66
2017-11-23T12:35:14.717Z,13.61
2017-11-23T12:37:43.016Z,13.60
2017-11-23T12:40:11.297Z,13.65
2017-11-23T12:42:39.566Z,13.64
2017-11-23T12:45:07.839Z,13.61
2017-11-23T12:47:36.124Z,13.62
2017-11-23T12:50:05.621Z,13.62
2017-11-23T12:52:33.898Z,13.63
2017-11-23T12:55:02.175Z,13.62
2017-11-23T12:57:30.456Z,13.67
2017-11-23T12:59:58.717Z,13.69
2017-11-23T13:02:27.007Z,13.76
2017-11-23T13:04:55.274Z,13.77
2017-11-23T13:07:23.558Z,13.78
2017-11-23T13:09:51.846Z,13.78
2017-11-23T13:12:20.887Z,13.76
2017-11-23T13:14:49.202Z,13.76
2017-11-23T13:17:17.479Z,13.76
2017-11-23T13:19:45.810Z,13.75
2017-11-23T13:22:14.104Z,13.77
2017-11-23T13:24:42.366Z,13.80
2017-11-23T13:27:10.650Z,13.81
2017-11-23T13:29:39.712Z,13.83
2017-11-23T13:32:08.616Z,13.82
2017-11-23T13:34:36.929Z,13.77
2017-11-23T13:37:05.194Z,13.72
2017-11-23T13:39:34.245Z,13.74
2017-11-23T13:42:02.511Z,13.71
2017-11-23T13:44:30.770Z,13.72
2017-11-23T13:46:59.069Z,13.73
2017-11-23T13:49:27.324Z,13.74
2017-11-23T13:51:55.615Z,13.75
2017-11-23T13:54:23.873Z,13.74
2017-11-23T13:56:52.179Z,13.74
2017-11-23T13:59:20.470Z,13.74
2017-11-23T14:01:48.751Z,13.78
2017-11-23T14:04:17.043Z,13.84
2017-11-23T14:06:45.702Z,13.78
2017-11-23T14:09:13.971Z,13.80
2017-11-23T14:11:42.251Z,13.87
2017-11-23T14:14:10.545Z,13.95
2017-11-23T14:16:38.817Z,14.01
2017-11-23T14:19:07.080Z,14.07
2017-11-23T14:21:35.376Z,14.11
2017-11-23T14:24:04.755Z,14.09
2017-11-23T14:26:33.273Z,14.13
2017-11-23T14:29:01.555Z,14.09
2017-11-23T14:31:29.828Z,14.08
2017-11-23T14:33:58.115Z,14.10
2017-11-23T14:36:26.377Z,14.10
2017-11-23T14:38:54.677Z,14.12
2017-11-23T14:41:22.954Z,14.07
2017-11-23T14:43:51.610Z,14.04
2017-11-23T14:46:19.930Z,14.04
2017-11-23T14:48:48.187Z,14.01
2017-11-23T14:51:16.490Z,14.06
2017-11-23T14:53:44.829Z,14.06
2017-11-23T14:56:13.107Z,14.04
2017-11-23T14:58:41.384Z,14.04
2017-11-23T15:01:09.675Z,14.04
2017-11-23T15:03:37.978Z,14.04
2017-11-23T15:06:06.271Z,13.99
2017-11-23T15:08:35.314Z,14.03
2017-11-23T15:11:03.639Z,14.06
2017-11-23T15:13:31.900Z,14.05
2017-11-23T15:16:00.230Z,14.03
2017-11-23T15:18:28.527Z,14.01
2017-11-23T15:20:56.800Z,14.07
2017-11-23T15:23:26.338Z,14.13
2017-11-23T15:25:54.628Z,14.04
2017-11-23T15:28:22.912Z,14.05
2017-11-23T15:30:51.197Z,14.03
2017-11-23T15:33:20.258Z,14.02
2017-11-23T15:35:48.545Z,13.97
2017-11-23T15:38:17.571Z,13.95
2017-11-23T15:40:46.630Z,14.02
2017-11-23T15:43:14.919Z,14.02
2017-11-23T15:45:43.196Z,13.99
2017-11-23T15:48:12.219Z,13.94
2017-11-23T15:50:41.246Z,13.98
2017-11-23T15:53:09.508Z,13.96
2017-11-23T15:55:37.801Z,13.93
2017-11-23T15:58:06.070Z,13.92
2017-11-23T16:00:34.336Z,13.93
2017-11-23T16:03:02.611Z,13.88
2017-11-23T16:05:30.872Z,13.86
2017-11-23T16:07:59.946Z,13.84
2017-11-23T16:10:28.234Z,13.87
2017-11-23T16:12:56.512Z,13.81
2017-11-23T16:15:24.812Z,13.79
2017-11-23T16:17:53.859Z,13.82
2017-11-23T16:20:22.133Z,13.79
2017-11-23T16:22:50.444Z,13.79
2017-11-23T16:25:19.486Z,13.79
2017-11-23T16:28:02.504Z,13.74
2017-11-23T16:30:30.782Z,13.68
2017-11-23T16:32:59.056Z,13.66
2017-11-23T16:35:27.344Z,13.65
2017-11-23T16:37:56.526Z,13.62
2017-11-23T16:43:27.165Z,13.48
2017-11-23T16:46:06.489Z,13.39
2017-11-23T16:48:41.069Z,13.29
2017-11-23T16:51:14.809Z,13.21
2017-11-23T16:53:48.502Z,13.14
2017-11-23T16:56:22.191Z,13.13
2017-11-23T16:58:51.576Z,13.08
2017-11-23T17:01:26.397Z,13.05
2017-11-23T17:04:06.363Z,12.98
2017-11-23T17:06:57.630Z,13.01
2017-11-23T17:09:28.896Z,12.94
2017-11-23T17:12:02.759Z,12.89
2017-11-23T17:17:40.547Z,12.82
2017-11-23T17:20:08.831Z,12.81
2017-11-23T17:22:37.107Z,12.77
2017-11-23T17:25:05.404Z,12.70
2017-11-23T17:27:33.697Z,12.69
2017-11-23T17:30:01.984Z,12.66
2017-11-23T17:32:30.292Z,12.61
2017-11-23T17:34:58.598Z,12.60
2017-11-23T17:58:35.643Z,12.31
2017-11-23T18:19:06.832Z,12.06
2017-11-23T18:39:38.790Z,11.90
2017-11-23T19:00:15.910Z,11.98
2017-11-23T19:20:51.179Z,12.05
2017-11-23T19:41:24.882Z,11.91
2017-11-23T20:02:02.973Z,12.04
2017-11-23T20:22:36.180Z,12.03
2017-11-23T20:43:10.350Z,11.66
2017-11-23T21:03:45.391Z,11.79
2017-11-23T21:24:22.880Z,11.89
2017-11-23T21:44:59.117Z,11.86
2017-11-23T22:05:32.121Z,11.62
2017-11-23T22:26:09.577Z,11.65
2017-11-23T22:46:43.865Z,11.67
2017-11-23T23:07:20.706Z,11.49
2017-11-23T23:27:56.894Z,11.52
2017-11-23T23:48:33.090Z,11.38
